sensor_id;sensor_type;location;lat;lon;timestamp;P1;durP1;ratioP1;P2;durP2;ratioP2
1320;SDS011;653;51.480;11.992;2023-04-16T00:01:19;14.70;;;13.10;;
1320;SDS011;653;51.480;11.992;2023-04-16T00:03:46;14.73;;;12.70;;
1320;SDS011;653;51.480;11.992;2023-04-16T00:06:11;14.50;;;12.40;;
1320;SDS011;653;51.480;11.992;2023-04-16T00:08:39;14.33;;;11.73;;
1320;SDS011;653;51.480;11.992;2023-04-16T00:11:05;15.50;;;13.00;;
1320;SDS011;653;51.480;11.992;2023-04-16T00:13:32;14.33;;;10.87;;
1320;SDS011;653;51.480;11.992;2023-04-16T00:15:58;15.23;;;12.17;;
1320;SDS011;653;51.480;11.992;2023-04-16T00:18:24;13.63;;;11.70;;
1320;SDS011;653;51.480;11.992;2023-04-16T00:20:51;12.97;;;11.67;;
1320;SDS011;653;51.480;11.992;2023-04-16T00:23:19;15.37;;;12.70;;
1320;SDS011;653;51.480;11.992;2023-04-16T00:25:46;13.73;;;11.50;;
1320;SDS011;653;51.480;11.992;2023-04-16T00:28:12;13.13;;;11.40;;
1320;SDS011;653;51.480;11.992;2023-04-16T00:30:38;14.43;;;11.33;;
1320;SDS011;653;51.480;11.992;2023-04-16T00:33:05;13.17;;;11.00;;
1320;SDS011;653;51.480;11.992;2023-04-16T00:35:33;15.97;;;11.23;;
1320;SDS011;653;51.480;11.992;2023-04-16T00:37:58;12.27;;;11.00;;
1320;SDS011;653;51.480;11.992;2023-04-16T00:40:28;12.47;;;10.70;;
1320;SDS011;653;51.480;11.992;2023-04-16T00:42:56;11.63;;;9.87;;
1320;SDS011;653;51.480;11.992;2023-04-16T00:45:23;11.90;;;10.67;;
1320;SDS011;653;51.480;11.992;2023-04-16T00:47:50;13.43;;;12.03;;
1320;SDS011;653;51.480;11.992;2023-04-16T00:50:17;14.53;;;11.10;;
1320;SDS011;653;51.480;11.992;2023-04-16T00:52:45;12.47;;;10.67;;
1320;SDS011;653;51.480;11.992;2023-04-16T00:55:11;13.67;;;12.27;;
1320;SDS011;653;51.480;11.992;2023-04-16T00:57:39;14.83;;;12.00;;
1320;SDS011;653;51.480;11.992;2023-04-16T01:00:05;12.80;;;11.50;;
1320;SDS011;653;51.480;11.992;2023-04-16T01:02:33;12.37;;;11.07;;
1320;SDS011;653;51.480;11.992;2023-04-16T01:04:59;14.03;;;12.50;;
1320;SDS011;653;51.480;11.992;2023-04-16T01:07:25;12.57;;;11.23;;
1320;SDS011;653;51.480;11.992;2023-04-16T01:09:51;13.43;;;11.43;;
1320;SDS011;653;51.480;11.992;2023-04-16T01:12:18;15.60;;;13.40;;
1320;SDS011;653;51.480;11.992;2023-04-16T01:14:43;13.13;;;11.67;;
1320;SDS011;653;51.480;11.992;2023-04-16T01:17:10;14.67;;;13.17;;
1320;SDS011;653;51.480;11.992;2023-04-16T01:19:35;14.53;;;12.10;;
1320;SDS011;653;51.480;11.992;2023-04-16T01:22:02;16.07;;;12.87;;
1320;SDS011;653;51.480;11.992;2023-04-16T01:24:31;15.93;;;13.33;;
1320;SDS011;653;51.480;11.992;2023-04-16T01:26:57;14.97;;;12.73;;
1320;SDS011;653;51.480;11.992;2023-04-16T01:29:26;19.20;;;13.43;;
1320;SDS011;653;51.480;11.992;2023-04-16T01:31:53;16.13;;;12.97;;
1320;SDS011;653;51.480;11.992;2023-04-16T01:34:20;15.83;;;12.20;;
1320;SDS011;653;51.480;11.992;2023-04-16T01:36:47;14.23;;;12.60;;
1320;SDS011;653;51.480;11.992;2023-04-16T01:39:14;13.67;;;11.30;;
1320;SDS011;653;51.480;11.992;2023-04-16T01:41:42;12.90;;;11.60;;
1320;SDS011;653;51.480;11.992;2023-04-16T01:44:07;13.53;;;11.53;;
1320;SDS011;653;51.480;11.992;2023-04-16T01:46:34;11.67;;;10.47;;
1320;SDS011;653;51.480;11.992;2023-04-16T01:49:04;13.20;;;10.70;;
1320;SDS011;653;51.480;11.992;2023-04-16T01:51:32;11.47;;;9.73;;
1320;SDS011;653;51.480;11.992;2023-04-16T01:53:59;12.40;;;10.23;;
1320;SDS011;653;51.480;11.992;2023-04-16T01:56:26;10.67;;;9.57;;
1320;SDS011;653;51.480;11.992;2023-04-16T01:58:54;11.00;;;9.80;;
1320;SDS011;653;51.480;11.992;2023-04-16T02:01:20;13.03;;;10.07;;
1320;SDS011;653;51.480;11.992;2023-04-16T02:03:47;12.07;;;10.00;;
1320;SDS011;653;51.480;11.992;2023-04-16T02:06:14;10.10;;;9.10;;
1320;SDS011;653;51.480;11.992;2023-04-16T02:08:40;9.10;;;8.20;;
1320;SDS011;653;51.480;11.992;2023-04-16T02:11:06;9.43;;;8.43;;
1320;SDS011;653;51.480;11.992;2023-04-16T02:13:33;9.40;;;7.67;;
1320;SDS011;653;51.480;11.992;2023-04-16T02:15:59;9.57;;;8.27;;
1320;SDS011;653;51.480;11.992;2023-04-16T02:18:26;9.70;;;8.70;;
1320;SDS011;653;51.480;11.992;2023-04-16T02:20:51;9.67;;;8.33;;
1320;SDS011;653;51.480;11.992;2023-04-16T02:23:19;10.10;;;8.80;;
1320;SDS011;653;51.480;11.992;2023-04-16T02:25:45;10.40;;;8.70;;
1320;SDS011;653;51.480;11.992;2023-04-16T02:28:14;8.87;;;7.87;;
1320;SDS011;653;51.480;11.992;2023-04-16T02:30:41;8.10;;;7.33;;
1320;SDS011;653;51.480;11.992;2023-04-16T02:33:10;8.90;;;8.00;;
1320;SDS011;653;51.480;11.992;2023-04-16T02:35:38;9.80;;;8.37;;
1320;SDS011;653;51.480;11.992;2023-04-16T02:38:06;9.53;;;8.53;;
1320;SDS011;653;51.480;11.992;2023-04-16T02:40:33;9.90;;;8.80;;
1320;SDS011;653;51.480;11.992;2023-04-16T02:43:00;12.67;;;9.77;;
1320;SDS011;653;51.480;11.992;2023-04-16T02:45:27;8.53;;;7.43;;
1320;SDS011;653;51.480;11.992;2023-04-16T02:47:53;8.00;;;7.20;;
1320;SDS011;653;51.480;11.992;2023-04-16T02:50:19;7.57;;;6.77;;
1320;SDS011;653;51.480;11.992;2023-04-16T02:52:46;7.80;;;7.00;;
1320;SDS011;653;51.480;11.992;2023-04-16T02:55:13;7.87;;;7.07;;
1320;SDS011;653;51.480;11.992;2023-04-16T02:57:39;9.80;;;6.97;;
1320;SDS011;653;51.480;11.992;2023-04-16T03:00:08;9.80;;;8.80;;
1320;SDS011;653;51.480;11.992;2023-04-16T03:02:35;11.20;;;10.00;;
1320;SDS011;653;51.480;11.992;2023-04-16T03:05:02;12.23;;;10.50;;
1320;SDS011;653;51.480;11.992;2023-04-16T03:07:31;17.50;;;15.00;;
1320;SDS011;653;51.480;11.992;2023-04-16T03:09:57;19.10;;;15.50;;
1320;SDS011;653;51.480;11.992;2023-04-16T03:12:24;19.00;;;16.10;;
1320;SDS011;653;51.480;11.992;2023-04-16T03:14:50;24.00;;;19.27;;
1320;SDS011;653;51.480;11.992;2023-04-16T03:17:18;29.73;;;22.47;;
1320;SDS011;653;51.480;11.992;2023-04-16T03:19:45;26.50;;;22.33;;
1320;SDS011;653;51.480;11.992;2023-04-16T03:22:10;27.20;;;23.13;;
1320;SDS011;653;51.480;11.992;2023-04-16T03:24:36;28.60;;;23.13;;
1320;SDS011;653;51.480;11.992;2023-04-16T03:27:03;33.10;;;24.93;;
1320;SDS011;653;51.480;11.992;2023-04-16T03:29:28;27.10;;;22.67;;
1320;SDS011;653;51.480;11.992;2023-04-16T03:31:55;28.80;;;21.93;;
1320;SDS011;653;51.480;11.992;2023-04-16T03:34:20;32.87;;;23.00;;
1320;SDS011;653;51.480;11.992;2023-04-16T03:36:47;26.20;;;21.80;;
1320;SDS011;653;51.480;11.992;2023-04-16T03:39:14;29.87;;;23.63;;
1320;SDS011;653;51.480;11.992;2023-04-16T03:41:42;26.60;;;21.63;;
1320;SDS011;653;51.480;11.992;2023-04-16T03:44:08;32.73;;;24.90;;
1320;SDS011;653;51.480;11.992;2023-04-16T03:46:33;30.00;;;24.13;;
1320;SDS011;653;51.480;11.992;2023-04-16T03:49:00;33.33;;;24.80;;
1320;SDS011;653;51.480;11.992;2023-04-16T03:51:30;34.50;;;25.87;;
1320;SDS011;653;51.480;11.992;2023-04-16T03:54:00;33.80;;;26.63;;
1320;SDS011;653;51.480;11.992;2023-04-16T03:56:27;33.20;;;26.70;;
1320;SDS011;653;51.480;11.992;2023-04-16T03:58:52;42.97;;;29.13;;
1320;SDS011;653;51.480;11.992;2023-04-16T04:01:18;37.47;;;27.70;;
1320;SDS011;653;51.480;11.992;2023-04-16T04:03:45;35.10;;;27.30;;
1320;SDS011;653;51.480;11.992;2023-04-16T04:06:12;39.23;;;28.73;;
1320;SDS011;653;51.480;11.992;2023-04-16T04:08:37;37.97;;;28.23;;
1320;SDS011;653;51.480;11.992;2023-04-16T04:11:04;38.87;;;28.80;;
1320;SDS011;653;51.480;11.992;2023-04-16T04:13:30;37.63;;;29.33;;
1320;SDS011;653;51.480;11.992;2023-04-16T04:15:57;38.10;;;28.90;;
1320;SDS011;653;51.480;11.992;2023-04-16T04:18:23;40.33;;;30.70;;
1320;SDS011;653;51.480;11.992;2023-04-16T04:20:50;35.87;;;27.13;;
1320;SDS011;653;51.480;11.992;2023-04-16T04:23:19;41.30;;;30.27;;
1320;SDS011;653;51.480;11.992;2023-04-16T04:26:01;39.17;;;29.27;;
1320;SDS011;653;51.480;11.992;2023-04-16T04:28:29;43.03;;;28.03;;
1320;SDS011;653;51.480;11.992;2023-04-16T04:30:56;41.73;;;29.10;;
1320;SDS011;653;51.480;11.992;2023-04-16T04:33:26;44.57;;;30.43;;
1320;SDS011;653;51.480;11.992;2023-04-16T04:35:52;40.53;;;29.30;;
1320;SDS011;653;51.480;11.992;2023-04-16T04:38:18;46.93;;;31.80;;
1320;SDS011;653;51.480;11.992;2023-04-16T04:40:47;50.17;;;32.07;;
1320;SDS011;653;51.480;11.992;2023-04-16T04:43:14;41.93;;;29.57;;
1320;SDS011;653;51.480;11.992;2023-04-16T04:45:39;47.87;;;32.13;;
1320;SDS011;653;51.480;11.992;2023-04-16T04:48:06;43.10;;;29.97;;
1320;SDS011;653;51.480;11.992;2023-04-16T04:50:33;48.10;;;31.70;;
1320;SDS011;653;51.480;11.992;2023-04-16T04:52:59;48.50;;;30.33;;
1320;SDS011;653;51.480;11.992;2023-04-16T04:55:26;43.30;;;29.87;;
1320;SDS011;653;51.480;11.992;2023-04-16T04:57:53;43.33;;;31.03;;
1320;SDS011;653;51.480;11.992;2023-04-16T05:00:20;44.13;;;30.60;;
1320;SDS011;653;51.480;11.992;2023-04-16T05:02:45;43.47;;;30.67;;
1320;SDS011;653;51.480;11.992;2023-04-16T05:05:12;40.17;;;29.67;;
1320;SDS011;653;51.480;11.992;2023-04-16T05:07:39;39.63;;;27.43;;
1320;SDS011;653;51.480;11.992;2023-04-16T05:10:06;39.87;;;28.10;;
1320;SDS011;653;51.480;11.992;2023-04-16T05:12:34;40.30;;;29.03;;
1320;SDS011;653;51.480;11.992;2023-04-16T05:15:01;33.60;;;25.17;;
1320;SDS011;653;51.480;11.992;2023-04-16T05:17:28;40.60;;;27.67;;
1320;SDS011;653;51.480;11.992;2023-04-16T05:19:55;43.13;;;30.20;;
1320;SDS011;653;51.480;11.992;2023-04-16T05:22:21;39.77;;;27.63;;
1320;SDS011;653;51.480;11.992;2023-04-16T05:24:48;40.20;;;28.67;;
1320;SDS011;653;51.480;11.992;2023-04-16T05:27:13;35.43;;;26.80;;
1320;SDS011;653;51.480;11.992;2023-04-16T05:29:40;36.40;;;27.83;;
1320;SDS011;653;51.480;11.992;2023-04-16T05:32:07;35.03;;;25.63;;
1320;SDS011;653;51.480;11.992;2023-04-16T05:34:35;37.13;;;27.20;;
1320;SDS011;653;51.480;11.992;2023-04-16T05:37:02;36.23;;;25.60;;
1320;SDS011;653;51.480;11.992;2023-04-16T05:39:29;34.93;;;26.20;;
1320;SDS011;653;51.480;11.992;2023-04-16T05:41:57;33.73;;;26.10;;
1320;SDS011;653;51.480;11.992;2023-04-16T05:44:22;32.43;;;24.10;;
1320;SDS011;653;51.480;11.992;2023-04-16T05:46:49;36.30;;;26.67;;
1320;SDS011;653;51.480;11.992;2023-04-16T05:49:16;32.00;;;25.20;;
1320;SDS011;653;51.480;11.992;2023-04-16T05:51:44;36.73;;;25.50;;
1320;SDS011;653;51.480;11.992;2023-04-16T05:54:11;35.83;;;26.70;;
1320;SDS011;653;51.480;11.992;2023-04-16T05:56:37;34.77;;;26.50;;
1320;SDS011;653;51.480;11.992;2023-04-16T05:59:04;36.60;;;24.97;;
1320;SDS011;653;51.480;11.992;2023-04-16T06:01:30;37.77;;;27.17;;
1320;SDS011;653;51.480;11.992;2023-04-16T06:03:56;37.57;;;27.13;;
1320;SDS011;653;51.480;11.992;2023-04-16T06:06:22;39.27;;;26.87;;
1320;SDS011;653;51.480;11.992;2023-04-16T06:08:47;39.50;;;28.03;;
1320;SDS011;653;51.480;11.992;2023-04-16T06:11:13;39.47;;;27.50;;
1320;SDS011;653;51.480;11.992;2023-04-16T06:13:40;38.40;;;28.73;;
1320;SDS011;653;51.480;11.992;2023-04-16T06:16:07;40.07;;;27.73;;
1320;SDS011;653;51.480;11.992;2023-04-16T06:18:34;38.27;;;28.23;;
1320;SDS011;653;51.480;11.992;2023-04-16T06:21:00;41.13;;;28.43;;
1320;SDS011;653;51.480;11.992;2023-04-16T06:23:26;41.27;;;28.97;;
1320;SDS011;653;51.480;11.992;2023-04-16T06:25:51;42.00;;;29.73;;
1320;SDS011;653;51.480;11.992;2023-04-16T06:28:17;40.77;;;30.37;;
1320;SDS011;653;51.480;11.992;2023-04-16T06:30:43;44.13;;;29.90;;
1320;SDS011;653;51.480;11.992;2023-04-16T06:33:09;38.63;;;28.67;;
1320;SDS011;653;51.480;11.992;2023-04-16T06:35:36;41.10;;;28.80;;
1320;SDS011;653;51.480;11.992;2023-04-16T06:38:01;38.63;;;26.83;;
1320;SDS011;653;51.480;11.992;2023-04-16T06:40:27;37.00;;;28.07;;
1320;SDS011;653;51.480;11.992;2023-04-16T06:42:54;36.43;;;27.30;;
1320;SDS011;653;51.480;11.992;2023-04-16T06:45:21;41.77;;;29.33;;
1320;SDS011;653;51.480;11.992;2023-04-16T06:47:49;41.60;;;29.80;;
1320;SDS011;653;51.480;11.992;2023-04-16T06:50:18;40.97;;;28.77;;
1320;SDS011;653;51.480;11.992;2023-04-16T06:52:43;39.33;;;26.50;;
1320;SDS011;653;51.480;11.992;2023-04-16T06:55:09;42.40;;;28.40;;
1320;SDS011;653;51.480;11.992;2023-04-16T06:57:34;38.00;;;26.27;;
1320;SDS011;653;51.480;11.992;2023-04-16T07:00:07;36.33;;;26.07;;
1320;SDS011;653;51.480;11.992;2023-04-16T07:02:34;32.03;;;25.43;;
1320;SDS011;653;51.480;11.992;2023-04-16T07:05:00;39.13;;;27.90;;
1320;SDS011;653;51.480;11.992;2023-04-16T07:07:27;30.17;;;22.10;;
1320;SDS011;653;51.480;11.992;2023-04-16T07:09:53;28.47;;;22.80;;
1320;SDS011;653;51.480;11.992;2023-04-16T07:12:18;27.17;;;22.03;;
1320;SDS011;653;51.480;11.992;2023-04-16T07:14:45;23.00;;;19.70;;
1320;SDS011;653;51.480;11.992;2023-04-16T07:17:13;24.67;;;19.47;;
1320;SDS011;653;51.480;11.992;2023-04-16T07:19:39;24.23;;;19.63;;
1320;SDS011;653;51.480;11.992;2023-04-16T07:22:06;22.30;;;18.90;;
1320;SDS011;653;51.480;11.992;2023-04-16T07:24:35;28.20;;;20.93;;
1320;SDS011;653;51.480;11.992;2023-04-16T07:27:01;23.07;;;19.60;;
1320;SDS011;653;51.480;11.992;2023-04-16T07:29:26;23.43;;;19.20;;
1320;SDS011;653;51.480;11.992;2023-04-16T07:31:53;27.60;;;19.87;;
1320;SDS011;653;51.480;11.992;2023-04-16T07:34:18;25.13;;;20.30;;
1320;SDS011;653;51.480;11.992;2023-04-16T07:36:44;26.23;;;20.20;;
1320;SDS011;653;51.480;11.992;2023-04-16T07:39:10;28.40;;;20.80;;
1320;SDS011;653;51.480;11.992;2023-04-16T07:41:40;27.87;;;21.63;;
1320;SDS011;653;51.480;11.992;2023-04-16T07:44:05;28.40;;;21.73;;
1320;SDS011;653;51.480;11.992;2023-04-16T07:46:32;28.60;;;21.30;;
1320;SDS011;653;51.480;11.992;2023-04-16T07:48:58;29.13;;;22.17;;
1320;SDS011;653;51.480;11.992;2023-04-16T07:51:24;27.70;;;21.13;;
1320;SDS011;653;51.480;11.992;2023-04-16T07:53:50;26.73;;;21.97;;
1320;SDS011;653;51.480;11.992;2023-04-16T07:56:17;32.30;;;23.17;;
1320;SDS011;653;51.480;11.992;2023-04-16T07:58:42;26.30;;;21.20;;
1320;SDS011;653;51.480;11.992;2023-04-16T08:01:07;27.27;;;21.93;;
1320;SDS011;653;51.480;11.992;2023-04-16T08:03:34;24.10;;;20.03;;
1320;SDS011;653;51.480;11.992;2023-04-16T08:06:00;27.27;;;20.70;;
1320;SDS011;653;51.480;11.992;2023-04-16T08:08:27;25.30;;;20.13;;
1320;SDS011;653;51.480;11.992;2023-04-16T08:10:54;20.93;;;17.93;;
1320;SDS011;653;51.480;11.992;2023-04-16T08:13:24;24.60;;;18.60;;
1320;SDS011;653;51.480;11.992;2023-04-16T08:15:50;21.30;;;16.87;;
1320;SDS011;653;51.480;11.992;2023-04-16T08:18:15;20.10;;;16.73;;
1320;SDS011;653;51.480;11.992;2023-04-16T08:20:42;21.00;;;16.70;;
1320;SDS011;653;51.480;11.992;2023-04-16T08:23:08;19.67;;;16.30;;
1320;SDS011;653;51.480;11.992;2023-04-16T08:25:35;21.97;;;18.20;;
1320;SDS011;653;51.480;11.992;2023-04-16T08:28:02;23.00;;;17.50;;
1320;SDS011;653;51.480;11.992;2023-04-16T08:30:29;23.40;;;18.17;;
1320;SDS011;653;51.480;11.992;2023-04-16T08:32:54;20.63;;;17.60;;
1320;SDS011;653;51.480;11.992;2023-04-16T08:35:20;20.90;;;17.23;;
1320;SDS011;653;51.480;11.992;2023-04-16T08:37:47;20.90;;;17.60;;
1320;SDS011;653;51.480;11.992;2023-04-16T08:40:13;20.80;;;17.03;;
1320;SDS011;653;51.480;11.992;2023-04-16T08:42:44;21.27;;;16.37;;
1320;SDS011;653;51.480;11.992;2023-04-16T08:45:15;22.80;;;18.27;;
1320;SDS011;653;51.480;11.992;2023-04-16T08:47:45;20.20;;;16.10;;
1320;SDS011;653;51.480;11.992;2023-04-16T08:50:15;19.10;;;15.97;;
1320;SDS011;653;51.480;11.992;2023-04-16T08:52:45;19.80;;;15.03;;
1320;SDS011;653;51.480;11.992;2023-04-16T08:55:18;21.03;;;16.07;;
1320;SDS011;653;51.480;11.992;2023-04-16T08:57:57;21.93;;;15.37;;
1320;SDS011;653;51.480;11.992;2023-04-16T09:00:25;17.93;;;14.30;;
1320;SDS011;653;51.480;11.992;2023-04-16T09:02:52;17.57;;;15.00;;
1320;SDS011;653;51.480;11.992;2023-04-16T09:05:18;18.97;;;15.33;;
1320;SDS011;653;51.480;11.992;2023-04-16T09:07:47;16.23;;;14.53;;
1320;SDS011;653;51.480;11.992;2023-04-16T09:10:15;17.90;;;15.67;;
1320;SDS011;653;51.480;11.992;2023-04-16T09:12:42;20.27;;;15.07;;
1320;SDS011;653;51.480;11.992;2023-04-16T09:15:10;20.20;;;16.00;;
1320;SDS011;653;51.480;11.992;2023-04-16T09:17:37;19.60;;;17.10;;
1320;SDS011;653;51.480;11.992;2023-04-16T09:20:08;20.17;;;16.50;;
1320;SDS011;653;51.480;11.992;2023-04-16T09:22:36;18.63;;;15.60;;
1320;SDS011;653;51.480;11.992;2023-04-16T09:25:03;18.60;;;16.70;;
1320;SDS011;653;51.480;11.992;2023-04-16T09:27:29;23.20;;;18.40;;
1320;SDS011;653;51.480;11.992;2023-04-16T09:29:56;20.37;;;16.33;;
1320;SDS011;653;51.480;11.992;2023-04-16T09:32:27;19.47;;;16.10;;
1320;SDS011;653;51.480;11.992;2023-04-16T09:34:59;19.60;;;17.10;;
1320;SDS011;653;51.480;11.992;2023-04-16T09:37:29;17.27;;;14.47;;
1320;SDS011;653;51.480;11.992;2023-04-16T09:40:23;19.83;;;16.93;;
1320;SDS011;653;51.480;11.992;2023-04-16T09:42:50;22.40;;;16.73;;
1320;SDS011;653;51.480;11.992;2023-04-16T09:45:16;18.03;;;16.07;;
1320;SDS011;653;51.480;11.992;2023-04-16T09:47:42;25.20;;;17.67;;
1320;SDS011;653;51.480;11.992;2023-04-16T09:50:12;23.20;;;19.43;;
1320;SDS011;653;51.480;11.992;2023-04-16T09:52:49;22.20;;;16.90;;
1320;SDS011;653;51.480;11.992;2023-04-16T09:55:21;20.30;;;16.50;;
1320;SDS011;653;51.480;11.992;2023-04-16T09:57:52;25.13;;;18.90;;
1320;SDS011;653;51.480;11.992;2023-04-16T10:00:24;17.53;;;15.50;;
1320;SDS011;653;51.480;11.992;2023-04-16T10:03:02;18.70;;;15.80;;
1320;SDS011;653;51.480;11.992;2023-04-16T10:05:33;20.90;;;16.40;;
1320;SDS011;653;51.480;11.992;2023-04-16T10:07:59;23.23;;;16.60;;
1320;SDS011;653;51.480;11.992;2023-04-16T10:10:28;21.40;;;15.63;;
1320;SDS011;653;51.480;11.992;2023-04-16T10:12:57;20.93;;;15.47;;
1320;SDS011;653;51.480;11.992;2023-04-16T10:15:24;25.10;;;18.43;;
1320;SDS011;653;51.480;11.992;2023-04-16T10:17:53;22.80;;;17.80;;
1320;SDS011;653;51.480;11.992;2023-04-16T10:20:19;26.60;;;19.57;;
1320;SDS011;653;51.480;11.992;2023-04-16T10:22:45;24.27;;;19.20;;
1320;SDS011;653;51.480;11.992;2023-04-16T10:25:10;21.60;;;18.17;;
1320;SDS011;653;51.480;11.992;2023-04-16T10:27:39;27.37;;;20.27;;
1320;SDS011;653;51.480;11.992;2023-04-16T10:30:07;27.27;;;18.73;;
1320;SDS011;653;51.480;11.992;2023-04-16T10:32:33;25.57;;;19.33;;
1320;SDS011;653;51.480;11.992;2023-04-16T10:34:59;28.10;;;18.87;;
1320;SDS011;653;51.480;11.992;2023-04-16T10:37:31;26.67;;;19.67;;
1320;SDS011;653;51.480;11.992;2023-04-16T10:39:58;23.83;;;18.87;;
1320;SDS011;653;51.480;11.992;2023-04-16T10:42:25;27.00;;;20.90;;
1320;SDS011;653;51.480;11.992;2023-04-16T10:44:53;27.80;;;19.83;;
1320;SDS011;653;51.480;11.992;2023-04-16T10:47:18;27.90;;;21.30;;
1320;SDS011;653;51.480;11.992;2023-04-16T10:49:46;26.30;;;19.57;;
1320;SDS011;653;51.480;11.992;2023-04-16T10:52:16;25.77;;;19.33;;
1320;SDS011;653;51.480;11.992;2023-04-16T10:54:42;25.00;;;19.00;;
1320;SDS011;653;51.480;11.992;2023-04-16T10:57:15;25.57;;;19.60;;
1320;SDS011;653;51.480;11.992;2023-04-16T10:59:43;23.10;;;19.00;;
1320;SDS011;653;51.480;11.992;2023-04-16T11:02:14;25.77;;;20.50;;
1320;SDS011;653;51.480;11.992;2023-04-16T11:04:42;27.40;;;21.10;;
1320;SDS011;653;51.480;11.992;2023-04-16T11:07:16;25.87;;;19.90;;
1320;SDS011;653;51.480;11.992;2023-04-16T11:09:58;28.40;;;21.90;;
1320;SDS011;653;51.480;11.992;2023-04-16T11:15:13;28.43;;;22.23;;
1320;SDS011;653;51.480;11.992;2023-04-16T11:17:48;26.90;;;19.50;;
1320;SDS011;653;51.480;11.992;2023-04-16T11:22:47;25.23;;;19.77;;
1320;SDS011;653;51.480;11.992;2023-04-16T11:25:28;23.97;;;18.60;;
1320;SDS011;653;51.480;11.992;2023-04-16T11:27:55;24.00;;;18.93;;
1320;SDS011;653;51.480;11.992;2023-04-16T11:30:34;28.27;;;20.90;;
1320;SDS011;653;51.480;11.992;2023-04-16T11:33:04;27.77;;;20.87;;
1320;SDS011;653;51.480;11.992;2023-04-16T11:35:36;26.17;;;20.37;;
1320;SDS011;653;51.480;11.992;2023-04-16T11:38:11;25.70;;;19.43;;
1320;SDS011;653;51.480;11.992;2023-04-16T11:40:41;27.30;;;19.50;;
1320;SDS011;653;51.480;11.992;2023-04-16T11:43:15;28.43;;;20.00;;
1320;SDS011;653;51.480;11.992;2023-04-16T11:46:00;29.03;;;20.73;;
1320;SDS011;653;51.480;11.992;2023-04-16T11:51:12;24.50;;;19.73;;
1320;SDS011;653;51.480;11.992;2023-04-16T11:53:49;24.87;;;19.30;;
1320;SDS011;653;51.480;11.992;2023-04-16T11:56:23;24.30;;;19.60;;
1320;SDS011;653;51.480;11.992;2023-04-16T11:59:06;26.90;;;18.90;;
1320;SDS011;653;51.480;11.992;2023-04-16T12:01:35;26.30;;;18.50;;
1320;SDS011;653;51.480;11.992;2023-04-16T12:04:01;28.37;;;19.07;;
1320;SDS011;653;51.480;11.992;2023-04-16T12:06:27;30.80;;;19.63;;
1320;SDS011;653;51.480;11.992;2023-04-16T12:08:54;25.00;;;19.30;;
1320;SDS011;653;51.480;11.992;2023-04-16T12:11:19;26.90;;;19.73;;
1320;SDS011;653;51.480;11.992;2023-04-16T12:16:39;31.40;;;22.17;;
1320;SDS011;653;51.480;11.992;2023-04-16T12:19:04;32.83;;;23.43;;
1320;SDS011;653;51.480;11.992;2023-04-16T12:21:47;35.90;;;24.73;;
1320;SDS011;653;51.480;11.992;2023-04-16T12:24:14;33.87;;;25.73;;
1320;SDS011;653;51.480;11.992;2023-04-16T12:26:45;35.60;;;24.13;;
1320;SDS011;653;51.480;11.992;2023-04-16T12:29:24;33.27;;;23.90;;
1320;SDS011;653;51.480;11.992;2023-04-16T12:31:54;35.07;;;24.53;;
1320;SDS011;653;51.480;11.992;2023-04-16T12:34:19;33.37;;;25.63;;
1320;SDS011;653;51.480;11.992;2023-04-16T12:36:48;33.77;;;25.50;;
1320;SDS011;653;51.480;11.992;2023-04-16T12:39:15;35.60;;;24.77;;
1320;SDS011;653;51.480;11.992;2023-04-16T12:41:42;35.20;;;24.20;;
1320;SDS011;653;51.480;11.992;2023-04-16T12:44:19;33.40;;;23.60;;
1320;SDS011;653;51.480;11.992;2023-04-16T12:46:45;32.87;;;24.07;;
1320;SDS011;653;51.480;11.992;2023-04-16T12:49:11;32.27;;;23.47;;
1320;SDS011;653;51.480;11.992;2023-04-16T12:51:37;29.87;;;23.60;;
1320;SDS011;653;51.480;11.992;2023-04-16T12:54:04;27.77;;;22.17;;
1320;SDS011;653;51.480;11.992;2023-04-16T12:56:31;55.03;;;47.53;;
1320;SDS011;653;51.480;11.992;2023-04-16T12:58:59;50.90;;;38.73;;
1320;SDS011;653;51.480;11.992;2023-04-16T13:01:24;51.80;;;42.87;;
1320;SDS011;653;51.480;11.992;2023-04-16T13:03:51;36.20;;;29.67;;
1320;SDS011;653;51.480;11.992;2023-04-16T13:06:17;27.13;;;20.77;;
1320;SDS011;653;51.480;11.992;2023-04-16T13:08:43;28.60;;;23.10;;
1320;SDS011;653;51.480;11.992;2023-04-16T13:11:11;31.23;;;24.10;;
1320;SDS011;653;51.480;11.992;2023-04-16T13:13:38;25.83;;;20.27;;
1320;SDS011;653;51.480;11.992;2023-04-16T13:16:06;29.40;;;23.60;;
1320;SDS011;653;51.480;11.992;2023-04-16T13:18:34;27.70;;;22.87;;
1320;SDS011;653;51.480;11.992;2023-04-16T13:21:05;30.30;;;24.10;;
1320;SDS011;653;51.480;11.992;2023-04-16T13:23:36;29.87;;;23.20;;
1320;SDS011;653;51.480;11.992;2023-04-16T13:26:02;30.57;;;23.20;;
1320;SDS011;653;51.480;11.992;2023-04-16T13:28:31;25.63;;;21.13;;
1320;SDS011;653;51.480;11.992;2023-04-16T13:30:58;32.20;;;23.60;;
1320;SDS011;653;51.480;11.992;2023-04-16T13:33:25;33.03;;;24.50;;
1320;SDS011;653;51.480;11.992;2023-04-16T13:35:52;32.20;;;25.97;;
1320;SDS011;653;51.480;11.992;2023-04-16T13:38:19;37.50;;;28.53;;
1320;SDS011;653;51.480;11.992;2023-04-16T13:40:46;44.03;;;30.80;;
1320;SDS011;653;51.480;11.992;2023-04-16T13:43:14;32.80;;;28.43;;
1320;SDS011;653;51.480;11.992;2023-04-16T13:45:44;33.33;;;27.60;;
1320;SDS011;653;51.480;11.992;2023-04-16T13:48:11;39.43;;;35.70;;
1320;SDS011;653;51.480;11.992;2023-04-16T13:50:38;29.57;;;21.63;;
1320;SDS011;653;51.480;11.992;2023-04-16T13:53:03;26.87;;;21.10;;
1320;SDS011;653;51.480;11.992;2023-04-16T13:55:31;27.17;;;20.30;;
1320;SDS011;653;51.480;11.992;2023-04-16T13:57:57;26.60;;;20.07;;
1320;SDS011;653;51.480;11.992;2023-04-16T14:00:24;24.23;;;19.23;;
1320;SDS011;653;51.480;11.992;2023-04-16T14:02:51;26.70;;;20.40;;
1320;SDS011;653;51.480;11.992;2023-04-16T14:05:18;24.40;;;21.00;;
1320;SDS011;653;51.480;11.992;2023-04-16T14:07:45;25.60;;;18.97;;
1320;SDS011;653;51.480;11.992;2023-04-16T14:10:10;29.47;;;20.50;;
1320;SDS011;653;51.480;11.992;2023-04-16T14:12:36;26.40;;;19.70;;
1320;SDS011;653;51.480;11.992;2023-04-16T14:15:04;27.93;;;21.30;;
1320;SDS011;653;51.480;11.992;2023-04-16T14:17:31;27.43;;;19.20;;
1320;SDS011;653;51.480;11.992;2023-04-16T14:19:58;23.70;;;19.00;;
1320;SDS011;653;51.480;11.992;2023-04-16T14:22:25;25.33;;;18.87;;
1320;SDS011;653;51.480;11.992;2023-04-16T14:24:50;18.53;;;15.30;;
1320;SDS011;653;51.480;11.992;2023-04-16T14:27:16;19.63;;;16.10;;
1320;SDS011;653;51.480;11.992;2023-04-16T14:29:43;16.90;;;13.83;;
1320;SDS011;653;51.480;11.992;2023-04-16T14:32:12;19.80;;;14.47;;
1320;SDS011;653;51.480;11.992;2023-04-16T14:34:39;17.37;;;14.93;;
1320;SDS011;653;51.480;11.992;2023-04-16T14:37:06;22.47;;;17.40;;
1320;SDS011;653;51.480;11.992;2023-04-16T14:39:32;23.13;;;16.40;;
1320;SDS011;653;51.480;11.992;2023-04-16T14:41:59;21.23;;;16.53;;
1320;SDS011;653;51.480;11.992;2023-04-16T14:44:25;22.57;;;17.20;;
1320;SDS011;653;51.480;11.992;2023-04-16T14:46:51;21.70;;;17.47;;
1320;SDS011;653;51.480;11.992;2023-04-16T14:49:19;23.23;;;18.70;;
1320;SDS011;653;51.480;11.992;2023-04-16T14:51:46;25.10;;;19.60;;
1320;SDS011;653;51.480;11.992;2023-04-16T14:54:14;29.67;;;20.73;;
1320;SDS011;653;51.480;11.992;2023-04-16T14:56:41;22.40;;;16.67;;
1320;SDS011;653;51.480;11.992;2023-04-16T14:59:07;22.87;;;17.30;;
1320;SDS011;653;51.480;11.992;2023-04-16T15:01:34;27.00;;;18.87;;
1320;SDS011;653;51.480;11.992;2023-04-16T15:04:06;22.87;;;18.30;;